Time;durP1;ratioP1;P1;durP2;ratioP2;P2;SDS_P1;SDS_P2;PMS_P1;PMS_P2;Temp;Humidity;BMP_temperature;BMP_pressure;BME280_temperature;BME280_humidity;BME280_pressure;Samples;Min_cycle;Max_cycle;Signal;HPM_P1;HPM_P2
2022/06/26 00:00:56;;;;;;;4.03;2.80;;;;;;;;;;5075118;28;20650;-56
2022/06/26 00:03:22;;;;;;;7.20;3.40;;;;;;;;;;5075129;28;20692;-55
2022/06/26 00:05:49;;;;;;;3.73;3.03;;;;;;;;;;5075267;28;20226;-55
2022/06/26 00:08:15;;;;;;;3.73;2.97;;;;;;;;;;5075090;28;20219;-56
2022/06/26 00:10:41;;;;;;;5.50;3.33;;;;;;;;;;5075283;28;20196;-56
2022/06/26 00:13:07;;;;;;;5.60;3.50;;;;;;;;;;5074896;28;20195;-55
2022/06/26 00:15:33;;;;;;;7.80;3.30;;;;;;;;;;5074764;28;20289;-54
2022/06/26 00:17:59;;;;;;;7.00;3.20;;;;;;;;;;5074897;28;20198;-55
2022/06/26 00:20:25;;;;;;;4.20;2.63;;;;;;;;;;5075019;28;20282;-56
2022/06/26 00:22:52;;;;;;;3.00;2.70;;;;;;;;;;5074773;28;20201;-56
2022/06/26 00:25:18;;;;;;;4.17;2.83;;;;;;;;;;5074954;28;20200;-56
2022/06/26 00:27:46;;;;;;;3.13;2.77;;;;;;;;;;5074517;28;20234;-55
2022/06/26 00:30:13;;;;;;;2.80;2.50;;;;;;;;;;5074891;28;20211;-56
2022/06/26 00:32:39;;;;;;;2.87;2.53;;;;;;;;;;5074966;28;20696;-56
2022/06/26 00:35:06;;;;;;;3.47;2.57;;;;;;;;;;5074777;28;20199;-55
2022/06/26 00:37:32;;;;;;;3.20;2.73;;;;;;;;;;5074866;28;20187;-56
2022/06/26 00:39:59;;;;;;;4.23;2.60;;;;;;;;;;5074689;28;20662;-56
2022/06/26 00:45:30;;;;;;;2.80;2.60;;;;;;;;;;5070828;28;20202;-55
2022/06/26 00:47:56;;;;;;;3.23;2.53;;;;;;;;;;5074451;28;20234;-55
2022/06/26 00:50:22;;;;;;;3.70;2.50;;;;;;;;;;5074648;28;20198;-55
2022/06/26 00:52:50;;;;;;;4.43;2.70;;;;;;;;;;5074466;28;20203;-55
2022/06/26 00:55:17;;;;;;;5.13;2.60;;;;;;;;;;5074475;28;20196;-55
2022/06/26 00:57:43;;;;;;;2.67;2.47;;;;;;;;;;5074551;28;20203;-56
2022/06/26 01:00:11;;;;;;;4.03;2.70;;;;;;;;;;5074611;28;20679;-55
2022/06/26 01:02:37;;;;;;;2.80;2.60;;;;;;;;;;5074376;28;20187;-55
2022/06/26 01:05:03;;;;;;;2.73;2.50;;;;;;;;;;5074149;28;20290;-55
2022/06/26 01:07:29;;;;;;;3.70;2.60;;;;;;;;;;5074234;28;20227;-55
2022/06/26 01:09:55;;;;;;;2.43;2.23;;;;;;;;;;5074215;28;20246;-55
2022/06/26 01:12:23;;;;;;;2.63;2.20;;;;;;;;;;5074138;28;20274;-55
2022/06/26 01:14:49;;;;;;;4.00;2.30;;;;;;;;;;5074058;28;20203;-56
2022/06/26 01:17:15;;;;;;;3.37;2.23;;;;;;;;;;5073913;28;20605;-55
2022/06/26 01:19:41;;;;;;;4.03;2.33;;;;;;;;;;5073801;28;20191;-55
2022/06/26 01:22:08;;;;;;;2.50;2.23;;;;;;;;;;5073876;28;20264;-55
2022/06/26 01:24:35;;;;;;;2.53;2.33;;;;;;;;;;5074027;28;20215;-55
2022/06/26 01:27:01;;;;;;;3.23;2.33;;;;;;;;;;5073518;28;20699;-55
2022/06/26 01:29:27;;;;;;;6.10;2.50;;;;;;;;;;5073868;28;20306;-56
2022/06/26 01:31:54;;;;;;;2.23;2.00;;;;;;;;;;5073483;28;20210;-54
2022/06/26 01:34:20;;;;;;;2.60;2.40;;;;;;;;;;5073623;28;20204;-54
2022/06/26 01:36:46;;;;;;;2.60;2.40;;;;;;;;;;5073494;28;20209;-55
2022/06/26 01:39:12;;;;;;;2.67;2.40;;;;;;;;;;5073444;28;20554;-54
2022/06/26 01:41:39;;;;;;;2.70;2.50;;;;;;;;;;5073431;28;20195;-55
2022/06/26 01:44:09;;;;;;;3.23;2.57;;;;;;;;;;5073348;28;20216;-55
2022/06/26 01:46:35;;;;;;;3.90;2.80;;;;;;;;;;5073436;28;20677;-56
2022/06/26 01:49:02;;;;;;;2.90;2.60;;;;;;;;;;5073215;28;20252;-56
2022/06/26 01:51:27;;;;;;;3.67;2.67;;;;;;;;;;5073335;28;20200;-54
2022/06/26 01:53:53;;;;;;;4.90;2.73;;;;;;;;;;5073426;28;20191;-54
2022/06/26 01:56:19;;;;;;;3.70;2.80;;;;;;;;;;5073248;28;20587;-55
2022/06/26 01:58:47;;;;;;;2.83;2.60;;;;;;;;;;5073299;28;20202;-54
2022/06/26 02:01:13;;;;;;;3.60;2.93;;;;;;;;;;5073308;28;20245;-55
2022/06/26 02:03:39;;;;;;;3.20;2.40;;;;;;;;;;5073181;28;20654;-56
2022/06/26 02:06:05;;;;;;;4.40;2.60;;;;;;;;;;5073011;28;20228;-55
2022/06/26 02:08:31;;;;;;;2.60;2.40;;;;;;;;;;5072848;28;20702;-55
2022/06/26 02:13:45;;;;;;;3.20;2.60;;;;;;;;;;5073029;28;20192;-55
2022/06/26 02:16:13;;;;;;;2.97;2.73;;;;;;;;;;5072034;28;20238;-54
2022/06/26 02:18:40;;;;;;;3.70;2.60;;;;;;;;;;5072935;28;20197;-54
2022/06/26 02:21:07;;;;;;;2.60;2.40;;;;;;;;;;5072670;28;20286;-55
2022/06/26 02:23:33;;;;;;;3.40;2.40;;;;;;;;;;5072878;28;20257;-54
2022/06/26 02:25:59;;;;;;;2.80;2.60;;;;;;;;;;5072579;28;20219;-54
2022/06/26 02:28:26;;;;;;;6.07;2.60;;;;;;;;;;5072586;28;20221;-55
2022/06/26 02:30:52;;;;;;;2.70;2.40;;;;;;;;;;5072722;28;20220;-55
2022/06/26 02:33:19;;;;;;;2.80;2.53;;;;;;;;;;5072547;28;20212;-55
2022/06/26 02:35:47;;;;;;;2.80;2.50;;;;;;;;;;5072670;28;20192;-55
2022/06/26 02:38:13;;;;;;;2.70;2.20;;;;;;;;;;5072431;28;20564;-55
2022/06/26 02:40:39;;;;;;;2.63;2.43;;;;;;;;;;5072335;28;20196;-55
2022/06/26 02:43:05;;;;;;;3.13;2.70;;;;;;;;;;5072298;28;20686;-54
2022/06/26 02:45:31;;;;;;;2.73;2.53;;;;;;;;;;5072573;28;20212;-55
2022/06/26 02:47:57;;;;;;;3.20;2.43;;;;;;;;;;5072193;28;20224;-53
2022/06/26 02:50:24;;;;;;;2.87;2.53;;;;;;;;;;5072499;28;20215;-53
2022/06/26 02:52:50;;;;;;;2.60;2.40;;;;;;;;;;5072373;28;20208;-55
2022/06/26 02:55:18;;;;;;;5.67;2.40;;;;;;;;;;5072186;28;20656;-55
2022/06/26 02:57:44;;;;;;;3.00;2.53;;;;;;;;;;5072548;28;20194;-54
2022/06/26 03:00:10;;;;;;;4.33;2.70;;;;;;;;;;5072265;28;20211;-54
2022/06/26 03:02:36;;;;;;;2.90;2.70;;;;;;;;;;5072215;28;20194;-55
2022/06/26 03:05:03;;;;;;;2.73;2.53;;;;;;;;;;5072183;28;20753;-55
2022/06/26 03:07:30;;;;;;;2.90;2.60;;;;;;;;;;5072170;28;20228;-54
2022/06/26 03:09:56;;;;;;;3.20;2.90;;;;;;;;;;5071106;28;20407;-55
2022/06/26 03:12:22;;;;;;;3.03;2.73;;;;;;;;;;5072077;28;20204;-54
2022/06/26 03:14:48;;;;;;;3.47;2.77;;;;;;;;;;5072224;28;20205;-55
2022/06/26 03:17:15;;;;;;;3.07;2.70;;;;;;;;;;5071889;28;20327;-55
2022/06/26 03:19:41;;;;;;;2.83;2.63;;;;;;;;;;5072281;28;20203;-55
2022/06/26 03:22:07;;;;;;;3.57;2.90;;;;;;;;;;5071991;28;20208;-55
2022/06/26 03:24:34;;;;;;;3.83;2.90;;;;;;;;;;5072022;28;20203;-55
2022/06/26 03:27:00;;;;;;;3.00;2.70;;;;;;;;;;5071950;28;20229;-55
2022/06/26 03:29:27;;;;;;;3.80;3.07;;;;;;;;;;5075077;28;20235;-54
2022/06/26 03:31:53;;;;;;;5.53;2.73;;;;;;;;;;5076148;28;20202;-55
2022/06/26 03:34:19;;;;;;;3.13;2.80;;;;;;;;;;5075929;28;20248;-55
2022/06/26 03:36:45;;;;;;;4.13;3.00;;;;;;;;;;5075963;28;20542;-55
2022/06/26 03:39:11;;;;;;;2.70;2.47;;;;;;;;;;5076006;28;20188;-55
2022/06/26 03:41:39;;;;;;;3.10;2.67;;;;;;;;;;5076018;28;20211;-55
2022/06/26 03:44:06;;;;;;;5.93;3.00;;;;;;;;;;5075524;28;20225;-55
2022/06/26 03:46:32;;;;;;;4.53;3.03;;;;;;;;;;5075893;28;20274;-55
2022/06/26 03:48:58;;;;;;;3.03;2.80;;;;;;;;;;5075511;28;20635;-55
2022/06/26 03:51:24;;;;;;;3.00;2.70;;;;;;;;;;5075394;28;20679;-55
2022/06/26 03:53:50;;;;;;;3.47;3.00;;;;;;;;;;5075341;28;20206;-55
2022/06/26 03:56:17;;;;;;;3.63;3.03;;;;;;;;;;5075460;28;20207;-54
2022/06/26 03:58:44;;;;;;;3.10;2.80;;;;;;;;;;5075605;28;20217;-54
2022/06/26 04:01:10;;;;;;;3.40;3.10;;;;;;;;;;5075483;28;20239;-55
2022/06/26 04:03:36;;;;;;;3.10;2.80;;;;;;;;;;5075402;28;20204;-55
2022/06/26 04:06:02;;;;;;;3.20;2.90;;;;;;;;;;5075359;28;20400;-54
2022/06/26 04:08:28;;;;;;;3.43;3.00;;;;;;;;;;5075352;28;20416;-54
2022/06/26 04:10:54;;;;;;;3.33;2.90;;;;;;;;;;5075395;28;20205;-54
2022/06/26 04:13:20;;;;;;;4.93;2.80;;;;;;;;;;5074968;28;20664;-55
2022/06/26 04:15:47;;;;;;;3.07;2.87;;;;;;;;;;5075043;28;20604;-55
2022/06/26 04:18:13;;;;;;;5.67;2.90;;;;;;;;;;5074959;28;20197;-55
2022/06/26 04:20:39;;;;;;;3.70;2.90;;;;;;;;;;5075252;28;20570;-54
2022/06/26 04:23:06;;;;;;;3.30;3.00;;;;;;;;;;5074867;28;20217;-54
2022/06/26 04:25:32;;;;;;;2.80;2.60;;;;;;;;;;5075025;28;20218;-56
2022/06/26 04:27:59;;;;;;;2.97;2.57;;;;;;;;;;5074924;28;20349;-55
2022/06/26 04:30:25;;;;;;;2.80;2.60;;;;;;;;;;5075035;28;20229;-55
2022/06/26 04:32:52;;;;;;;4.13;2.70;;;;;;;;;;5074845;28;20211;-54
2022/06/26 04:35:19;;;;;;;2.67;2.47;;;;;;;;;;5074710;28;20673;-54
2022/06/26 04:37:46;;;;;;;3.93;2.87;;;;;;;;;;5074855;28;20208;-55
2022/06/26 04:40:13;;;;;;;3.03;2.33;;;;;;;;;;5074124;28;20201;-55
2022/06/26 04:42:39;;;;;;;7.03;3.23;;;;;;;;;;5074414;28;20571;-54
2022/06/26 04:45:06;;;;;;;3.10;2.80;;;;;;;;;;5074707;28;20234;-54
2022/06/26 04:47:32;;;;;;;5.40;3.43;;;;;;;;;;5074504;28;20227;-54
2022/06/26 04:49:59;;;;;;;2.70;2.50;;;;;;;;;;5074627;28;20772;-54
2022/06/26 04:52:25;;;;;;;3.27;2.70;;;;;;;;;;5074507;28;20202;-54
2022/06/26 04:54:51;;;;;;;3.10;2.57;;;;;;;;;;5074414;28;20203;-54
2022/06/26 04:57:17;;;;;;;2.60;2.40;;;;;;;;;;5074433;28;20457;-54
2022/06/26 04:59:43;;;;;;;3.50;2.60;;;;;;;;;;5074330;28;20296;-55
2022/06/26 05:02:10;;;;;;;2.63;2.43;;;;;;;;;;5074373;28;20238;-55
2022/06/26 05:04:36;;;;;;;3.47;3.00;;;;;;;;;;5074506;28;20223;-55
2022/06/26 05:07:04;;;;;;;4.43;2.80;;;;;;;;;;5073954;28;20195;-55
2022/06/26 05:09:30;;;;;;;3.03;2.70;;;;;;;;;;5074380;28;20260;-54
2022/06/26 05:11:57;;;;;;;2.93;2.73;;;;;;;;;;5074315;28;20209;-54
2022/06/26 05:14:23;;;;;;;3.63;2.93;;;;;;;;;;5073437;28;20661;-53
2022/06/26 05:16:49;;;;;;;4.53;2.90;;;;;;;;;;5073320;28;20248;-54
2022/06/26 05:19:15;;;;;;;3.83;2.97;;;;;;;;;;5073931;28;20268;-54
2022/06/26 05:21:41;;;;;;;3.83;2.83;;;;;;;;;;5074128;28;20218;-55
2022/06/26 05:24:08;;;;;;;2.80;2.60;;;;;;;;;;5073644;28;20665;-55
2022/06/26 05:26:35;;;;;;;4.20;2.80;;;;;;;;;;5073674;28;20311;-55
2022/06/26 05:29:01;;;;;;;2.77;2.50;;;;;;;;;;5073747;28;20310;-55
2022/06/26 05:31:27;;;;;;;4.17;2.80;;;;;;;;;;5073758;28;20195;-55
2022/06/26 05:33:54;;;;;;;3.77;2.50;;;;;;;;;;5073772;28;20203;-55
2022/06/26 05:36:20;;;;;;;3.47;3.00;;;;;;;;;;5073791;28;20193;-55
2022/06/26 05:38:46;;;;;;;3.77;2.70;;;;;;;;;;5073801;28;20187;-55
2022/06/26 05:41:13;;;;;;;3.90;2.87;;;;;;;;;;5073719;28;20559;-55
2022/06/26 05:43:41;;;;;;;2.93;2.50;;;;;;;;;;5073641;28;20685;-55
2022/06/26 05:46:07;;;;;;;2.67;2.47;;;;;;;;;;5073708;28;20673;-55
2022/06/26 05:48:33;;;;;;;3.73;2.50;;;;;;;;;;5073060;28;20319;-55
2022/06/26 05:50:59;;;;;;;2.73;2.47;;;;;;;;;;5072396;28;20289;-55
2022/06/26 05:53:25;;;;;;;3.00;2.37;;;;;;;;;;5073139;28;20207;-55
2022/06/26 05:55:51;;;;;;;2.60;2.23;;;;;;;;;;5073468;28;20223;-55
2022/06/26 05:58:18;;;;;;;3.37;2.60;;;;;;;;;;5073152;28;20199;-55
2022/06/26 06:00:44;;;;;;;3.30;2.33;;;;;;;;;;5073298;28;20285;-55
2022/06/26 06:03:10;;;;;;;2.40;2.20;;;;;;;;;;5073079;28;20227;-55
2022/06/26 06:05:36;;;;;;;3.90;2.30;;;;;;;;;;5073133;28;20195;-55
2022/06/26 06:08:02;;;;;;;2.47;2.00;;;;;;;;;;5073155;28;20799;-55
2022/06/26 06:10:29;;;;;;;2.53;2.33;;;;;;;;;;5072995;28;20198;-55
2022/06/26 06:12:55;;;;;;;3.07;2.57;;;;;;;;;;5072886;28;20206;-55
2022/06/26 06:15:23;;;;;;;3.60;2.47;;;;;;;;;;5072469;28;20559;-56
2022/06/26 06:17:49;;;;;;;2.63;2.30;;;;;;;;;;5072676;28;20298;-55
2022/06/26 06:20:17;;;;;;;3.20;2.50;;;;;;;;;;5072744;28;20250;-55
2022/06/26 06:22:44;;;;;;;3.10;2.57;;;;;;;;;;5072717;28;20654;-55
2022/06/26 06:25:11;;;;;;;2.67;2.33;;;;;;;;;;5073258;28;20549;-57
2022/06/26 06:27:37;;;;;;;4.27;2.70;;;;;;;;;;5072850;28;20212;-53
2022/06/26 06:30:04;;;;;;;3.00;2.60;;;;;;;;;;5072479;28;20731;-53
2022/06/26 06:32:31;;;;;;;3.30;2.80;;;;;;;;;;5072760;28;20575;-55
2022/06/26 06:34:57;;;;;;;5.63;3.03;;;;;;;;;;5072552;28;20663;-57
2022/06/26 06:37:23;;;;;;;3.33;2.90;;;;;;;;;;5072675;28;20207;-55
2022/06/26 06:39:49;;;;;;;3.10;2.80;;;;;;;;;;5072561;28;20572;-55
2022/06/26 06:42:15;;;;;;;2.60;2.40;;;;;;;;;;5072406;28;20204;-53
2022/06/26 06:44:41;;;;;;;4.30;2.70;;;;;;;;;;5072545;28;20276;-55
2022/06/26 06:47:07;;;;;;;2.77;2.57;;;;;;;;;;5072283;28;20200;-53
2022/06/26 06:49:34;;;;;;;3.50;2.30;;;;;;;;;;5071941;28;20236;-54
2022/06/26 06:52:01;;;;;;;3.43;2.63;;;;;;;;;;5072276;28;20240;-54
2022/06/26 06:54:27;;;;;;;4.20;2.40;;;;;;;;;;5072302;28;20200;-54
2022/06/26 06:56:53;;;;;;;3.97;2.70;;;;;;;;;;5072219;28;20724;-57
2022/06/26 06:59:19;;;;;;;2.43;2.23;;;;;;;;;;5072185;28;20194;-55
2022/06/26 07:01:45;;;;;;;3.10;2.10;;;;;;;;;;5071954;28;20204;-55
2022/06/26 07:04:11;;;;;;;2.77;1.93;;;;;;;;;;5072217;28;20200;-54
2022/06/26 07:06:39;;;;;;;2.33;2.13;;;;;;;;;;5072041;28;20253;-55
2022/06/26 07:09:05;;;;;;;2.57;2.33;;;;;;;;;;5072141;28;20328;-55
2022/06/26 07:11:31;;;;;;;3.00;2.40;;;;;;;;;;5072045;28;20570;-54
2022/06/26 07:13:57;;;;;;;4.67;2.77;;;;;;;;;;5072199;28;20294;-54
2022/06/26 07:16:23;;;;;;;3.27;2.50;;;;;;;;;;5071673;28;20778;-55
2022/06/26 07:18:49;;;;;;;3.27;2.33;;;;;;;;;;5071983;28;20200;-55
2022/06/26 07:21:15;;;;;;;3.63;2.50;;;;;;;;;;5072233;28;20233;-55
2022/06/26 07:23:43;;;;;;;4.03;2.43;;;;;;;;;;5071880;28;20221;-55
2022/06/26 07:26:08;;;;;;;4.27;2.30;;;;;;;;;;5071975;28;20230;-56
2022/06/26 07:28:34;;;;;;;3.60;2.30;;;;;;;;;;5072129;28;20633;-56
2022/06/26 07:31:01;;;;;;;3.23;2.60;;;;;;;;;;5072065;28;20250;-54
2022/06/26 07:36:12;;;;;;;2.13;2.00;;;;;;;;;;5072138;28;20229;-55
2022/06/26 07:38:38;;;;;;;3.20;2.40;;;;;;;;;;5070153;28;20575;-56
2022/06/26 07:41:05;;;;;;;3.70;2.40;;;;;;;;;;5071806;28;20248;-54
2022/06/26 07:43:31;;;;;;;3.80;2.53;;;;;;;;;;5071693;28;20346;-54
2022/06/26 07:45:58;;;;;;;3.23;2.93;;;;;;;;;;5072139;28;20223;-55
2022/06/26 07:48:24;;;;;;;3.50;2.87;;;;;;;;;;5071766;28;20268;-54
2022/06/26 07:50:52;;;;;;;3.03;2.73;;;;;;;;;;5071568;28;20199;-54
2022/06/26 07:53:18;;;;;;;3.20;2.57;;;;;;;;;;5072071;28;20200;-58
2022/06/26 07:55:44;;;;;;;3.47;2.67;;;;;;;;;;5071800;28;20191;-55
2022/06/26 07:58:12;;;;;;;2.67;2.47;;;;;;;;;;5072147;28;20203;-55
2022/06/26 08:00:38;;;;;;;3.10;2.43;;;;;;;;;;5072012;28;20199;-55
2022/06/26 08:03:04;;;;;;;3.33;3.03;;;;;;;;;;5071740;28;20202;-56
2022/06/26 08:05:32;;;;;;;2.73;2.50;;;;;;;;;;5071661;28;20200;-56
2022/06/26 08:07:58;;;;;;;3.70;2.90;;;;;;;;;;5070559;28;20220;-57
2022/06/26 08:10:24;;;;;;;2.97;2.70;;;;;;;;;;5071780;28;20249;-56
2022/06/26 08:12:50;;;;;;;6.73;3.00;;;;;;;;;;5071541;28;20196;-56
2022/06/26 08:15:18;;;;;;;3.00;2.50;;;;;;;;;;5073537;28;20263;-58
2022/06/26 08:17:44;;;;;;;3.90;2.93;;;;;;;;;;5074495;28;20210;-56
2022/06/26 08:20:11;;;;;;;5.90;3.03;;;;;;;;;;5074944;28;20202;-55
2022/06/26 08:22:36;;;;;;;5.90;2.60;;;;;;;;;;5075139;28;20199;-54
2022/06/26 08:25:03;;;;;;;3.53;2.87;;;;;;;;;;5075100;28;20241;-56
2022/06/26 08:27:29;;;;;;;3.43;2.87;;;;;;;;;;5074766;28;20229;-57
2022/06/26 08:29:55;;;;;;;3.87;2.70;;;;;;;;;;5075024;28;20230;-56
2022/06/26 08:32:22;;;;;;;3.13;2.83;;;;;;;;;;5074669;28;20722;-55
2022/06/26 08:34:48;;;;;;;3.07;2.60;;;;;;;;;;5074856;28;20199;-56
2022/06/26 08:37:14;;;;;;;3.60;2.40;;;;;;;;;;5074893;28;20214;-57
2022/06/26 08:39:40;;;;;;;6.03;3.63;;;;;;;;;;5074485;28;20193;-56
2022/06/26 08:42:07;;;;;;;3.27;2.80;;;;;;;;;;5073902;28;20683;-56
2022/06/26 08:44:33;;;;;;;4.00;2.83;;;;;;;;;;5074126;28;20219;-56
2022/06/26 08:47:02;;;;;;;4.53;3.00;;;;;;;;;;5074221;28;20242;-56
2022/06/26 08:49:30;;;;;;;4.03;3.20;;;;;;;;;;5074365;28;20324;-56
2022/06/26 08:51:56;;;;;;;3.40;2.83;;;;;;;;;;5074753;28;20307;-57
2022/06/26 08:54:22;;;;;;;3.53;3.10;;;;;;;;;;5074383;28;20233;-56
2022/06/26 08:56:48;;;;;;;3.37;3.07;;;;;;;;;;5074456;28;20232;-57
2022/06/26 08:59:15;;;;;;;3.07;2.77;;;;;;;;;;5074385;28;20187;-57
2022/06/26 09:01:41;;;;;;;3.60;3.30;;;;;;;;;;5074028;28;20215;-56
2022/06/26 09:04:08;;;;;;;3.10;2.90;;;;;;;;;;5074173;28;20198;-57
2022/06/26 09:06:35;;;;;;;4.13;3.03;;;;;;;;;;5073783;28;20714;-57
2022/06/26 09:09:12;;;;;;;2.90;2.70;;;;;;;;;;5074030;28;20248;-57
2022/06/26 09:11:38;;;;;;;3.40;3.10;;;;;;;;;;5074379;28;20259;-57
2022/06/26 09:14:04;;;;;;;4.53;2.97;;;;;;;;;;5073940;28;20676;-57
2022/06/26 09:16:31;;;;;;;3.80;2.33;;;;;;;;;;5071868;28;20268;-57
2022/06/26 09:19:06;;;;;;;3.73;2.37;;;;;;;;;;5072165;28;20192;-57
2022/06/26 09:21:32;;;;;;;2.80;2.60;;;;;;;;;;5073334;28;20213;-57
2022/06/26 09:23:59;;;;;;;2.93;2.00;;;;;;;;;;5073859;28;20202;-58
2022/06/26 09:26:25;;;;;;;3.73;3.00;;;;;;;;;;5073331;28;20284;-57
2022/06/26 09:28:51;;;;;;;3.10;2.20;;;;;;;;;;5073390;28;20230;-58
2022/06/26 09:31:19;;;;;;;3.80;2.30;;;;;;;;;;5073814;28;20296;-57
2022/06/26 09:33:45;;;;;;;3.10;2.80;;;;;;;;;;5073856;28;20206;-57
2022/06/26 09:36:14;;;;;;;5.77;2.70;;;;;;;;;;5073836;28;20256;-57
2022/06/26 09:38:41;;;;;;;2.33;2.13;;;;;;;;;;5073703;28;20200;-57
2022/06/26 09:41:08;;;;;;;4.20;2.20;;;;;;;;;;5073551;28;20192;-57
2022/06/26 09:43:35;;;;;;;2.73;2.20;;;;;;;;;;5073496;28;20688;-57
2022/06/26 09:46:04;;;;;;;3.80;1.90;;;;;;;;;;5073478;28;20198;-57
2022/06/26 09:48:31;;;;;;;4.90;2.20;;;;;;;;;;5072558;28;20336;-58
2022/06/26 09:50:57;;;;;;;2.90;2.00;;;;;;;;;;5073388;28;20206;-57
2022/06/26 09:53:24;;;;;;;3.43;2.20;;;;;;;;;;5073300;28;20197;-57
2022/06/26 09:55:51;;;;;;;3.13;2.00;;;;;;;;;;5073215;28;20206;-57
2022/06/26 09:58:19;;;;;;;3.97;2.33;;;;;;;;;;5073491;28;20308;-58
2022/06/26 10:06:28;;;;;;;2.97;2.10;;;;;;;;;;5073130;28;20199;-57
2022/06/26 10:08:55;;;;;;;2.47;2.27;;;;;;;;;;5073344;28;20316;-57
2022/06/26 10:11:27;;;;;;;2.37;2.00;;;;;;;;;;5073183;28;20199;-56
2022/06/26 10:13:56;;;;;;;2.10;1.90;;;;;;;;;;5073232;28;20578;-56
2022/06/26 10:16:29;;;;;;;2.53;2.10;;;;;;;;;;5072724;28;20244;-56
2022/06/26 10:19:06;;;;;;;2.97;2.20;;;;;;;;;;5072456;28;20212;-57
2022/06/26 10:21:35;;;;;;;2.17;2.00;;;;;;;;;;5072496;28;20213;-56
2022/06/26 10:24:02;;;;;;;2.93;2.30;;;;;;;;;;5072715;28;20196;-56
2022/06/26 10:26:29;;;;;;;3.03;2.60;;;;;;;;;;5072488;28;20219;-56
2022/06/26 10:29:01;;;;;;;2.43;2.23;;;;;;;;;;5072783;28;20235;-57
2022/06/26 10:31:29;;;;;;;4.67;2.10;;;;;;;;;;5072789;28;20202;-57
2022/06/26 10:33:55;;;;;;;2.53;2.30;;;;;;;;;;5073101;28;20285;-57
2022/06/26 10:36:22;;;;;;;3.10;2.30;;;;;;;;;;5072716;28;20287;-56
2022/06/26 10:38:48;;;;;;;2.63;2.10;;;;;;;;;;5072267;28;20201;-56
2022/06/26 10:44:02;;;;;;;2.33;1.90;;;;;;;;;;5072528;28;20204;-57
2022/06/26 10:46:35;;;;;;;2.17;1.87;;;;;;;;;;5072436;28;20203;-57
2022/06/26 10:49:01;;;;;;;2.30;2.10;;;;;;;;;;5072363;28;20235;-56
2022/06/26 10:51:29;;;;;;;2.10;1.87;;;;;;;;;;5072356;28;20294;-56
2022/06/26 10:53:55;;;;;;;2.87;1.90;;;;;;;;;;5072478;28;20230;-56
2022/06/26 10:56:21;;;;;;;1.90;1.70;;;;;;;;;;5072144;28;20206;-56
2022/06/26 10:58:48;;;;;;;2.43;2.00;;;;;;;;;;5072022;28;20190;-56
2022/06/26 11:01:20;;;;;;;3.33;2.00;;;;;;;;;;5072293;28;20209;-57
2022/06/26 11:03:46;;;;;;;1.87;1.77;;;;;;;;;;5072157;28;20264;-55
2022/06/26 11:06:14;;;;;;;1.83;1.70;;;;;;;;;;5072342;28;20224;-55
2022/06/26 11:08:43;;;;;;;3.70;1.70;;;;;;;;;;5071976;28;20767;-54
2022/06/26 11:11:14;;;;;;;2.17;1.60;;;;;;;;;;5069066;28;20208;-56
2022/06/26 11:13:48;;;;;;;1.83;1.60;;;;;;;;;;5070878;28;20246;-56
2022/06/26 11:16:14;;;;;;;1.67;1.57;;;;;;;;;;5071829;28;20582;-57
2022/06/26 11:18:41;;;;;;;2.87;1.57;;;;;;;;;;5071775;28;20282;-56
2022/06/26 11:21:07;;;;;;;6.37;1.80;;;;;;;;;;5071718;28;20209;-55
2022/06/26 11:23:34;;;;;;;2.40;1.77;;;;;;;;;;5071522;28;20205;-56
2022/06/26 11:26:01;;;;;;;1.60;1.50;;;;;;;;;;5070100;28;20244;-56
2022/06/26 11:28:28;;;;;;;1.47;1.37;;;;;;;;;;5071518;28;20231;-54
2022/06/26 11:30:54;;;;;;;1.90;1.57;;;;;;;;;;5071574;28;20280;-56
2022/06/26 11:33:27;;;;;;;2.23;1.40;;;;;;;;;;5071681;28;20239;-55
2022/06/26 11:35:54;;;;;;;1.33;1.23;;;;;;;;;;5071064;28;20731;-55
2022/06/26 11:38:21;;;;;;;1.60;1.50;;;;;;;;;;5071584;28;20196;-54
2022/06/26 11:40:47;;;;;;;1.67;1.50;;;;;;;;;;5072020;28;20197;-54
2022/06/26 11:43:14;;;;;;;1.97;1.73;;;;;;;;;;5071751;28;20206;-55
2022/06/26 11:45:42;;;;;;;2.43;1.60;;;;;;;;;;5071906;28;20192;-55
2022/06/26 11:48:12;;;;;;;1.63;1.37;;;;;;;;;;5072098;28;20307;-54
2022/06/26 11:50:38;;;;;;;1.77;1.47;;;;;;;;;;5074934;28;20210;-54
2022/06/26 11:53:06;;;;;;;1.60;1.50;;;;;;;;;;5075669;28;20197;-54
2022/06/26 11:55:32;;;;;;;1.70;1.60;;;;;;;;;;5075595;28;20231;-55
2022/06/26 11:58:01;;;;;;;2.10;1.47;;;;;;;;;;5075435;28;20292;-55
2022/06/26 12:00:27;;;;;;;2.23;1.50;;;;;;;;;;5074255;28;20202;-55
2022/06/26 12:02:53;;;;;;;1.70;1.60;;;;;;;;;;5075454;28;20302;-55
2022/06/26 12:05:20;;;;;;;1.57;1.40;;;;;;;;;;5075337;28;20231;-55
2022/06/26 12:07:47;;;;;;;1.83;1.60;;;;;;;;;;5075359;28;20213;-54
2022/06/26 12:10:24;;;;;;;2.60;1.60;;;;;;;;;;5075303;28;20225;-55
2022/06/26 12:12:51;;;;;;;2.20;1.60;;;;;;;;;;5075011;28;20206;-54
2022/06/26 12:15:17;;;;;;;2.47;1.53;;;;;;;;;;5075067;28;20258;-55
2022/06/26 12:17:43;;;;;;;2.70;1.40;;;;;;;;;;5075036;28;20199;-54
2022/06/26 12:20:13;;;;;;;3.33;1.30;;;;;;;;;;5075096;28;20251;-54
2022/06/26 12:22:39;;;;;;;1.60;1.50;;;;;;;;;;5074901;28;20683;-54
2022/06/26 12:25:05;;;;;;;1.30;1.20;;;;;;;;;;5072967;28;20687;-54
2022/06/26 12:27:37;;;;;;;1.57;1.20;;;;;;;;;;5073649;28;20225;-54
2022/06/26 12:30:14;;;;;;;2.30;1.40;;;;;;;;;;5074514;28;20814;-54
2022/06/26 12:32:40;;;;;;;1.83;1.70;;;;;;;;;;5075037;28;20202;-54
2022/06/26 12:35:06;;;;;;;2.07;1.10;;;;;;;;;;5074823;28;20199;-54
2022/06/26 12:37:32;;;;;;;1.70;1.27;;;;;;;;;;5074490;28;20233;-54
2022/06/26 12:39:58;;;;;;;1.93;1.40;;;;;;;;;;5074445;28;20193;-54
2022/06/26 12:42:24;;;;;;;1.43;1.33;;;;;;;;;;5074470;28;20294;-55
2022/06/26 12:44:52;;;;;;;1.30;1.20;;;;;;;;;;5074314;28;20205;-54
2022/06/26 12:47:17;;;;;;;1.43;1.30;;;;;;;;;;5074518;28;20307;-55
2022/06/26 12:49:43;;;;;;;3.27;1.40;;;;;;;;;;5074230;28;20244;-55
2022/06/26 12:52:09;;;;;;;1.53;0.97;;;;;;;;;;5074336;28;20203;-55
2022/06/26 12:54:35;;;;;;;1.53;1.30;;;;;;;;;;5074238;28;20674;-55
2022/06/26 12:57:02;;;;;;;1.50;1.23;;;;;;;;;;5074370;28;20204;-55
2022/06/26 12:59:28;;;;;;;2.73;1.20;;;;;;;;;;5074067;28;20192;-55
2022/06/26 13:01:55;;;;;;;1.37;1.13;;;;;;;;;;5073544;28;20202;-55
2022/06/26 13:04:21;;;;;;;1.60;1.20;;;;;;;;;;5073918;28;20679;-55
2022/06/26 13:06:47;;;;;;;1.30;1.20;;;;;;;;;;5073815;28;20206;-55
2022/06/26 13:09:13;;;;;;;1.50;1.40;;;;;;;;;;5073895;28;20321;-55
2022/06/26 13:11:39;;;;;;;1.30;1.20;;;;;;;;;;5074108;28;20230;-55
2022/06/26 13:14:05;;;;;;;2.10;1.10;;;;;;;;;;5073679;28;20256;-55
2022/06/26 13:16:31;;;;;;;1.47;1.30;;;;;;;;;;5073456;28;20234;-55
2022/06/26 13:18:59;;;;;;;2.70;1.30;;;;;;;;;;5073741;28;20189;-55
2022/06/26 13:21:25;;;;;;;1.63;1.30;;;;;;;;;;5073836;28;20220;-55
2022/06/26 13:23:51;;;;;;;1.17;1.10;;;;;;;;;;5073525;28;20199;-54
2022/06/26 13:26:17;;;;;;;1.20;1.10;;;;;;;;;;5073531;28;20264;-54
2022/06/26 13:28:44;;;;;;;2.37;1.60;;;;;;;;;;5073207;28;20219;-54
2022/06/26 13:31:10;;;;;;;2.07;1.20;;;;;;;;;;5073495;28;20325;-54
2022/06/26 13:33:36;;;;;;;1.40;1.20;;;;;;;;;;5072367;28;20231;-55
2022/06/26 13:36:03;;;;;;;1.10;1.00;;;;;;;;;;5073468;28;20196;-55
2022/06/26 13:38:29;;;;;;;1.20;1.10;;;;;;;;;;5073198;28;20200;-55
2022/06/26 13:40:55;;;;;;;1.33;1.23;;;;;;;;;;5073331;28;20673;-55
2022/06/26 13:43:21;;;;;;;1.67;1.23;;;;;;;;;;5073130;28;20197;-55
2022/06/26 13:45:47;;;;;;;1.50;1.03;;;;;;;;;;5073000;28;20215;-55
2022/06/26 13:48:13;;;;;;;1.33;1.23;;;;;;;;;;5073140;28;20615;-55
2022/06/26 13:50:39;;;;;;;2.03;1.37;;;;;;;;;;5073044;28;20280;-55
2022/06/26 13:53:07;;;;;;;1.37;1.27;;;;;;;;;;5073046;28;20293;-55
2022/06/26 13:55:33;;;;;;;2.43;1.50;;;;;;;;;;5072828;28;20767;-56
2022/06/26 13:57:58;;;;;;;1.43;1.30;;;;;;;;;;5072722;28;20200;-55
2022/06/26 14:00:25;;;;;;;2.17;1.40;;;;;;;;;;5073198;28;20683;-55
2022/06/26 14:02:51;;;;;;;1.77;1.30;;;;;;;;;;5073098;28;20284;-55
2022/06/26 14:05:17;;;;;;;1.57;1.30;;;;;;;;;;5073133;28;20204;-55
2022/06/26 14:07:43;;;;;;;1.70;1.50;;;;;;;;;;5072563;28;20204;-55
2022/06/26 14:10:10;;;;;;;2.40;1.50;;;;;;;;;;5072504;28;20235;-55
2022/06/26 14:12:36;;;;;;;2.30;1.60;;;;;;;;;;5072129;28;20208;-55
2022/06/26 14:15:02;;;;;;;1.40;1.30;;;;;;;;;;5072610;28;20291;-54
2022/06/26 14:17:28;;;;;;;2.47;1.73;;;;;;;;;;5072391;28;20238;-55
2022/06/26 14:19:55;;;;;;;1.77;1.60;;;;;;;;;;5072565;28;20674;-54
2022/06/26 14:27:52;;;;;;;1.40;1.30;;;;;;;;;;5072363;28;20201;-55
2022/06/26 14:30:18;;;;;;;1.60;1.40;;;;;;;;;;5072264;28;20234;-54
2022/06/26 14:32:44;;;;;;;3.77;1.60;;;;;;;;;;5072246;28;20196;-54
2022/06/26 14:35:10;;;;;;;1.50;1.40;;;;;;;;;;5072495;28;20568;-54
2022/06/26 14:37:36;;;;;;;2.13;1.40;;;;;;;;;;5072564;28;20225;-54
2022/06/26 14:40:03;;;;;;;2.80;1.50;;;;;;;;;;5072752;28;20200;-54
2022/06/26 14:42:29;;;;;;;1.90;1.50;;;;;;;;;;5072191;28;20204;-54
2022/06/26 14:44:57;;;;;;;1.50;1.40;;;;;;;;;;5072046;28;20200;-55
2022/06/26 14:47:23;;;;;;;2.03;1.60;;;;;;;;;;5072121;28;20216;-55
2022/06/26 14:49:49;;;;;;;1.47;1.37;;;;;;;;;;5071913;28;20549;-55
2022/06/26 14:52:14;;;;;;;3.10;1.53;;;;;;;;;;5071915;28;20191;-55
2022/06/26 14:54:41;;;;;;;2.80;1.57;;;;;;;;;;5072094;28;20203;-55
2022/06/26 14:57:07;;;;;;;1.90;1.53;;;;;;;;;;5071806;28;20606;-55
2022/06/26 14:59:37;;;;;;;4.13;1.60;;;;;;;;;;5071983;28;20641;-55
2022/06/26 15:02:04;;;;;;;1.40;1.30;;;;;;;;;;5072389;28;20192;-55